sensor_id;sensor_type;location;lat;lon;timestamp;temperature;humidity
8882;DHT22;4477;48.736;9.176;2023-04-10T00:10:46;3.10;95.00
8882;DHT22;4477;48.736;9.176;2023-04-10T00:13:13;2.60;98.40
8882;DHT22;4477;48.736;9.176;2023-04-10T00:15:42;2.40;99.10
8882;DHT22;4477;48.736;9.176;2023-04-10T00:18:08;2.40;99.90
8882;DHT22;4477;48.736;9.176;2023-04-10T00:20:35;2.30;99.90
8882;DHT22;4477;48.736;9.176;2023-04-10T00:23:02;2.40;99.90
8882;DHT22;4477;48.736;9.176;2023-04-10T00:25:29;2.50;99.90
8882;DHT22;4477;48.736;9.176;2023-04-10T00:27:56;2.40;99.90
8882;DHT22;4477;48.736;9.176;2023-04-10T00:30:23;2.40;99.90
8882;DHT22;4477;48.736;9.176;2023-04-10T00:32:51;2.20;99.90
8882;DHT22;4477;48.736;9.176;2023-04-10T01:04:47;2.00;99.90
8882;DHT22;4477;48.736;9.176;2023-04-10T01:07:20;1.70;99.90
8882;DHT22;4477;48.736;9.176;2023-04-10T01:09:57;1.60;99.90
8882;DHT22;4477;48.736;9.176;2023-04-10T01:12:39;1.50;99.90
8882;DHT22;4477;48.736;9.176;2023-04-10T01:15:10;1.60;99.90
8882;DHT22;4477;48.736;9.176;2023-04-10T01:17:42;1.60;99.90
8882;DHT22;4477;48.736;9.176;2023-04-10T01:20:13;1.50;99.90
8882;DHT22;4477;48.736;9.176;2023-04-10T01:23:04;1.50;99.90
8882;DHT22;4477;48.736;9.176;2023-04-10T01:25:40;1.30;99.90
8882;DHT22;4477;48.736;9.176;2023-04-10T01:28:24;1.20;99.90
8882;DHT22;4477;48.736;9.176;2023-04-10T01:30:59;1.10;99.90
8882;DHT22;4477;48.736;9.176;2023-04-10T01:33:31;1.00;99.90
8882;DHT22;4477;48.736;9.176;2023-04-10T01:40:57;1.00;99.90
8882;DHT22;4477;48.736;9.176;2023-04-10T01:55:47;0.70;99.90
8882;DHT22;4477;48.736;9.176;2023-04-10T01:58:14;0.90;99.90
8882;DHT22;4477;48.736;9.176;2023-04-10T02:00:42;1.00;99.90
8882;DHT22;4477;48.736;9.176;2023-04-10T02:03:09;1.00;99.90
8882;DHT22;4477;48.736;9.176;2023-04-10T02:05:45;1.00;99.90
8882;DHT22;4477;48.736;9.176;2023-04-10T02:08:17;0.90;99.90
8882;DHT22;4477;48.736;9.176;2023-04-10T02:10:51;0.70;99.90
8882;DHT22;4477;48.736;9.176;2023-04-10T02:13:20;0.50;99.90
8882;DHT22;4477;48.736;9.176;2023-04-10T02:15:49;0.40;99.90
8882;DHT22;4477;48.736;9.176;2023-04-10T02:18:18;0.40;99.90
8882;DHT22;4477;48.736;9.176;2023-04-10T02:20:46;0.30;99.90
8882;DHT22;4477;48.736;9.176;2023-04-10T02:23:14;0.20;99.90
8882;DHT22;4477;48.736;9.176;2023-04-10T02:25:42;0.10;99.90
8882;DHT22;4477;48.736;9.176;2023-04-10T02:28:09;0.10;99.90
8882;DHT22;4477;48.736;9.176;2023-04-10T02:30:35;0.00;99.90
8882;DHT22;4477;48.736;9.176;2023-04-10T02:33:03;-0.10;99.90
8882;DHT22;4477;48.736;9.176;2023-04-10T02:35:32;-0.10;99.90
8882;DHT22;4477;48.736;9.176;2023-04-10T02:38:00;-0.10;99.90
8882;DHT22;4477;48.736;9.176;2023-04-10T02:40:27;-0.20;99.90
8882;DHT22;4477;48.736;9.176;2023-04-10T02:42:53;-0.20;99.90
8882;DHT22;4477;48.736;9.176;2023-04-10T02:45:20;-0.10;99.90
8882;DHT22;4477;48.736;9.176;2023-04-10T02:47:47;-0.10;99.90
8882;DHT22;4477;48.736;9.176;2023-04-10T02:50:14;0.00;99.90
8882;DHT22;4477;48.736;9.176;2023-04-10T02:52:42;-0.10;99.90
8882;DHT22;4477;48.736;9.176;2023-04-10T02:55:11;-0.10;99.90
8882;DHT22;4477;48.736;9.176;2023-04-10T02:57:37;-0.10;99.90
8882;DHT22;4477;48.736;9.176;2023-04-10T03:00:05;-0.20;99.90
8882;DHT22;4477;48.736;9.176;2023-04-10T03:02:32;0.00;99.90
8882;DHT22;4477;48.736;9.176;2023-04-10T03:05:00;0.10;99.90
8882;DHT22;4477;48.736;9.176;2023-04-10T03:07:27;0.20;99.90
8882;DHT22;4477;48.736;9.176;2023-04-10T03:09:53;0.40;99.90
8882;DHT22;4477;48.736;9.176;2023-04-10T03:12:22;0.60;99.90
8882;DHT22;4477;48.736;9.176;2023-04-10T03:14:48;0.70;99.90
8882;DHT22;4477;48.736;9.176;2023-04-10T03:17:15;0.50;99.90
8882;DHT22;4477;48.736;9.176;2023-04-10T03:19:44;0.30;99.90
8882;DHT22;4477;48.736;9.176;2023-04-10T03:22:11;0.10;99.90
8882;DHT22;4477;48.736;9.176;2023-04-10T03:24:38;0.00;99.90
8882;DHT22;4477;48.736;9.176;2023-04-10T03:27:05;0.00;99.90
8882;DHT22;4477;48.736;9.176;2023-04-10T03:29:33;0.00;99.90
8882;DHT22;4477;48.736;9.176;2023-04-10T03:32:00;0.00;99.90
8882;DHT22;4477;48.736;9.176;2023-04-10T03:34:27;0.00;99.90
8882;DHT22;4477;48.736;9.176;2023-04-10T03:36:54;0.10;99.90
8882;DHT22;4477;48.736;9.176;2023-04-10T03:39:20;0.10;99.90
8882;DHT22;4477;48.736;9.176;2023-04-10T03:41:48;0.10;99.90
8882;DHT22;4477;48.736;9.176;2023-04-10T03:44:14;0.20;99.90
8882;DHT22;4477;48.736;9.176;2023-04-10T03:46:42;0.40;99.90
8882;DHT22;4477;48.736;9.176;2023-04-10T03:49:09;0.40;99.90
8882;DHT22;4477;48.736;9.176;2023-04-10T03:51:36;0.50;99.90
8882;DHT22;4477;48.736;9.176;2023-04-10T03:54:03;0.60;99.90
8882;DHT22;4477;48.736;9.176;2023-04-10T03:56:30;0.70;99.90
8882;DHT22;4477;48.736;9.176;2023-04-10T03:58:57;0.80;99.90
8882;DHT22;4477;48.736;9.176;2023-04-10T04:01:23;0.90;99.90
8882;DHT22;4477;48.736;9.176;2023-04-10T04:03:52;0.90;99.90
8882;DHT22;4477;48.736;9.176;2023-04-10T07:03:18;1.00;99.90
8882;DHT22;4477;48.736;9.176;2023-04-10T07:05:45;9.30;73.40
8882;DHT22;4477;48.736;9.176;2023-04-10T07:08:12;9.50;73.00
8882;DHT22;4477;48.736;9.176;2023-04-10T07:10:39;10.10;68.60
8882;DHT22;4477;48.736;9.176;2023-04-10T07:13:07;10.40;68.70
8882;DHT22;4477;48.736;9.176;2023-04-10T07:15:34;10.90;66.50
8882;DHT22;4477;48.736;9.176;2023-04-10T07:18:01;11.20;65.70
8882;DHT22;4477;48.736;9.176;2023-04-10T07:20:27;11.20;63.60
8882;DHT22;4477;48.736;9.176;2023-04-10T07:22:54;11.70;63.30
8882;DHT22;4477;48.736;9.176;2023-04-10T07:25:21;11.80;60.00
8882;DHT22;4477;48.736;9.176;2023-04-10T07:27:48;11.70;59.90
8882;DHT22;4477;48.736;9.176;2023-04-10T07:30:17;12.10;59.10
8882;DHT22;4477;48.736;9.176;2023-04-10T07:32:44;11.90;59.80
8882;DHT22;4477;48.736;9.176;2023-04-10T07:35:11;12.00;59.00
8882;DHT22;4477;48.736;9.176;2023-04-10T07:37:38;12.20;58.50
8882;DHT22;4477;48.736;9.176;2023-04-10T07:40:07;12.30;59.20
8882;DHT22;4477;48.736;9.176;2023-04-10T07:42:34;12.70;58.20
8882;DHT22;4477;48.736;9.176;2023-04-10T07:45:00;13.10;55.50
8882;DHT22;4477;48.736;9.176;2023-04-10T07:47:29;13.30;55.40
8882;DHT22;4477;48.736;9.176;2023-04-10T07:57:17;13.40;53.00
8882;DHT22;4477;48.736;9.176;2023-04-10T07:59:43;12.90;54.50
8882;DHT22;4477;48.736;9.176;2023-04-10T08:02:10;13.00;55.40
8882;DHT22;4477;48.736;9.176;2023-04-10T08:04:38;13.30;54.70
8882;DHT22;4477;48.736;9.176;2023-04-10T08:07:07;13.70;54.60
8882;DHT22;4477;48.736;9.176;2023-04-10T08:09:33;13.70;53.40
8882;DHT22;4477;48.736;9.176;2023-04-10T08:12:00;13.80;51.40
8882;DHT22;4477;48.736;9.176;2023-04-10T08:14:28;13.70;54.00
8882;DHT22;4477;48.736;9.176;2023-04-10T08:16:54;14.10;52.40
8882;DHT22;4477;48.736;9.176;2023-04-10T08:19:22;14.50;51.70
8882;DHT22;4477;48.736;9.176;2023-04-10T08:21:50;14.60;52.80
8882;DHT22;4477;48.736;9.176;2023-04-10T08:24:17;14.80;48.90
8882;DHT22;4477;48.736;9.176;2023-04-10T08:26:44;15.00;50.90
8882;DHT22;4477;48.736;9.176;2023-04-10T08:29:11;15.20;50.40
8882;DHT22;4477;48.736;9.176;2023-04-10T08:31:38;15.00;49.70
8882;DHT22;4477;48.736;9.176;2023-04-10T08:34:05;14.90;50.30
8882;DHT22;4477;48.736;9.176;2023-04-10T08:36:32;15.00;49.50
8882;DHT22;4477;48.736;9.176;2023-04-10T08:39:01;14.70;50.10
8882;DHT22;4477;48.736;9.176;2023-04-10T08:41:27;14.50;50.50
8882;DHT22;4477;48.736;9.176;2023-04-10T08:43:55;14.40;50.40
8882;DHT22;4477;48.736;9.176;2023-04-10T08:46:22;14.40;50.90
8882;DHT22;4477;48.736;9.176;2023-04-10T08:48:54;14.20;50.80
8882;DHT22;4477;48.736;9.176;2023-04-10T08:51:23;14.10;52.80
8882;DHT22;4477;48.736;9.176;2023-04-10T08:53:51;14.70;52.10
8882;DHT22;4477;48.736;9.176;2023-04-10T08:56:20;14.90;50.10
8882;DHT22;4477;48.736;9.176;2023-04-10T08:58:50;15.00;50.70
8882;DHT22;4477;48.736;9.176;2023-04-10T09:01:19;15.30;48.40
8882;DHT22;4477;48.736;9.176;2023-04-10T09:03:47;15.90;48.40
8882;DHT22;4477;48.736;9.176;2023-04-10T09:06:14;15.40;49.30
8882;DHT22;4477;48.736;9.176;2023-04-10T09:08:40;15.50;49.60
8882;DHT22;4477;48.736;9.176;2023-04-10T09:11:07;15.80;48.70
8882;DHT22;4477;48.736;9.176;2023-04-10T09:13:37;15.60;49.20
8882;DHT22;4477;48.736;9.176;2023-04-10T09:16:05;15.60;48.70
8882;DHT22;4477;48.736;9.176;2023-04-10T09:18:44;15.90;48.20
8882;DHT22;4477;48.736;9.176;2023-04-10T09:21:13;16.10;46.50
8882;DHT22;4477;48.736;9.176;2023-04-10T09:23:40;15.70;47.80
8882;DHT22;4477;48.736;9.176;2023-04-10T09:26:27;15.90;46.30
8882;DHT22;4477;48.736;9.176;2023-04-10T09:28:59;16.50;45.00
8882;DHT22;4477;48.736;9.176;2023-04-10T09:31:31;16.30;45.80
8882;DHT22;4477;48.736;9.176;2023-04-10T09:34:10;16.40;44.50
8882;DHT22;4477;48.736;9.176;2023-04-10T09:36:38;16.30;44.10
8882;DHT22;4477;48.736;9.176;2023-04-10T09:39:06;16.20;45.10
8882;DHT22;4477;48.736;9.176;2023-04-10T09:41:33;16.40;44.50
8882;DHT22;4477;48.736;9.176;2023-04-10T09:44:08;16.40;44.90
8882;DHT22;4477;48.736;9.176;2023-04-10T09:46:35;16.50;43.10
8882;DHT22;4477;48.736;9.176;2023-04-10T09:49:03;16.70;43.40
8882;DHT22;4477;48.736;9.176;2023-04-10T09:51:32;16.60;43.90
8882;DHT22;4477;48.736;9.176;2023-04-10T09:54:00;16.90;44.30
8882;DHT22;4477;48.736;9.176;2023-04-10T09:56:28;17.20;44.20
8882;DHT22;4477;48.736;9.176;2023-04-10T09:58:58;17.20;42.80
8882;DHT22;4477;48.736;9.176;2023-04-10T10:01:27;17.30;44.10
8882;DHT22;4477;48.736;9.176;2023-04-10T10:03:55;17.70;43.30
8882;DHT22;4477;48.736;9.176;2023-04-10T10:06:24;18.00;42.60
8882;DHT22;4477;48.736;9.176;2023-04-10T10:08:51;18.20;40.10
8882;DHT22;4477;48.736;9.176;2023-04-10T10:11:21;18.10;40.20
8882;DHT22;4477;48.736;9.176;2023-04-10T10:13:50;18.00;41.00
8882;DHT22;4477;48.736;9.176;2023-04-10T10:16:20;18.00;39.00
8882;DHT22;4477;48.736;9.176;2023-04-10T10:18:54;18.40;38.90
8882;DHT22;4477;48.736;9.176;2023-04-10T10:21:22;18.40;38.20
8882;DHT22;4477;48.736;9.176;2023-04-10T10:23:51;18.40;36.50
8882;DHT22;4477;48.736;9.176;2023-04-10T10:26:19;18.60;36.70
8882;DHT22;4477;48.736;9.176;2023-04-10T10:28:48;18.60;35.20
8882;DHT22;4477;48.736;9.176;2023-04-10T10:31:17;18.40;36.70
8882;DHT22;4477;48.736;9.176;2023-04-10T10:33:45;18.40;35.60
8882;DHT22;4477;48.736;9.176;2023-04-10T10:36:14;18.60;35.50
8882;DHT22;4477;48.736;9.176;2023-04-10T10:38:49;19.00;35.40
8882;DHT22;4477;48.736;9.176;2023-04-10T10:41:24;19.10;34.10
8882;DHT22;4477;48.736;9.176;2023-04-10T10:44:00;19.00;34.70
8882;DHT22;4477;48.736;9.176;2023-04-10T10:46:39;19.00;34.70
8882;DHT22;4477;48.736;9.176;2023-04-10T10:49:07;19.20;33.90
8882;DHT22;4477;48.736;9.176;2023-04-10T10:51:45;19.30;32.70
8882;DHT22;4477;48.736;9.176;2023-04-10T10:54:34;19.20;32.70
8882;DHT22;4477;48.736;9.176;2023-04-10T10:57:01;18.90;32.80
8882;DHT22;4477;48.736;9.176;2023-04-10T10:59:52;18.80;33.60
8882;DHT22;4477;48.736;9.176;2023-04-10T11:02:19;18.20;33.50
8882;DHT22;4477;48.736;9.176;2023-04-10T11:04:47;18.10;32.70
8882;DHT22;4477;48.736;9.176;2023-04-10T11:07:16;18.10;33.30
8882;DHT22;4477;48.736;9.176;2023-04-10T11:09:49;18.20;34.40
8882;DHT22;4477;48.736;9.176;2023-04-10T11:12:18;18.40;33.80
8882;DHT22;4477;48.736;9.176;2023-04-10T11:14:56;19.00;35.20
8882;DHT22;4477;48.736;9.176;2023-04-10T11:17:47;19.70;30.50
8882;DHT22;4477;48.736;9.176;2023-04-10T11:25:45;19.80;31.80
8882;DHT22;4477;48.736;9.176;2023-04-10T11:28:34;21.00;30.60
8882;DHT22;4477;48.736;9.176;2023-04-10T11:31:18;21.00;29.10
8882;DHT22;4477;48.736;9.176;2023-04-10T11:33:46;21.40;29.90
8882;DHT22;4477;48.736;9.176;2023-04-10T11:36:14;21.90;32.80
8882;DHT22;4477;48.736;9.176;2023-04-10T11:38:56;22.80;29.00
8882;DHT22;4477;48.736;9.176;2023-04-10T11:41:30;22.70;27.60
8882;DHT22;4477;48.736;9.176;2023-04-10T11:43:57;22.30;27.00
8882;DHT22;4477;48.736;9.176;2023-04-10T11:46:24;22.10;28.80
8882;DHT22;4477;48.736;9.176;2023-04-10T11:48:52;20.90;27.70
8882;DHT22;4477;48.736;9.176;2023-04-10T11:51:19;20.80;29.90
8882;DHT22;4477;48.736;9.176;2023-04-10T11:53:46;21.30;29.40
8882;DHT22;4477;48.736;9.176;2023-04-10T11:56:17;21.80;27.50
8882;DHT22;4477;48.736;9.176;2023-04-10T11:58:48;22.30;27.60
8882;DHT22;4477;48.736;9.176;2023-04-10T12:01:20;22.30;27.30
8882;DHT22;4477;48.736;9.176;2023-04-10T12:03:46;22.10;27.30
8882;DHT22;4477;48.736;9.176;2023-04-10T12:06:14;22.20;27.60
8882;DHT22;4477;48.736;9.176;2023-04-10T12:08:42;22.70;24.80
8882;DHT22;4477;48.736;9.176;2023-04-10T12:11:12;22.50;27.40
8882;DHT22;4477;48.736;9.176;2023-04-10T12:13:40;22.80;24.90
8882;DHT22;4477;48.736;9.176;2023-04-10T12:16:09;22.90;25.00
8882;DHT22;4477;48.736;9.176;2023-04-10T12:18:37;23.20;24.60
8882;DHT22;4477;48.736;9.176;2023-04-10T12:21:04;22.80;24.10
8882;DHT22;4477;48.736;9.176;2023-04-10T12:23:32;22.50;24.90
8882;DHT22;4477;48.736;9.176;2023-04-10T12:26:11;22.40;26.10
8882;DHT22;4477;48.736;9.176;2023-04-10T12:28:39;22.60;24.90
8882;DHT22;4477;48.736;9.176;2023-04-10T12:31:07;22.50;25.20
8882;DHT22;4477;48.736;9.176;2023-04-10T12:33:35;23.10;24.90
8882;DHT22;4477;48.736;9.176;2023-04-10T12:36:02;23.20;23.30
8882;DHT22;4477;48.736;9.176;2023-04-10T12:38:36;22.40;24.10
8882;DHT22;4477;48.736;9.176;2023-04-10T12:41:03;21.40;24.60
8882;DHT22;4477;48.736;9.176;2023-04-10T12:43:31;21.00;25.70
8882;DHT22;4477;48.736;9.176;2023-04-10T12:45:59;21.20;25.20
8882;DHT22;4477;48.736;9.176;2023-04-10T12:48:27;22.20;26.50
8882;DHT22;4477;48.736;9.176;2023-04-10T12:50:55;22.30;23.30
8882;DHT22;4477;48.736;9.176;2023-04-10T12:53:22;22.00;24.60
8882;DHT22;4477;48.736;9.176;2023-04-10T12:55:59;22.40;25.40
8882;DHT22;4477;48.736;9.176;2023-04-10T12:58:27;21.60;26.00
8882;DHT22;4477;48.736;9.176;2023-04-10T13:00:56;21.40;26.40
8882;DHT22;4477;48.736;9.176;2023-04-10T13:03:23;21.30;25.70
8882;DHT22;4477;48.736;9.176;2023-04-10T13:05:52;21.00;26.60
8882;DHT22;4477;48.736;9.176;2023-04-10T13:08:19;21.10;25.70
8882;DHT22;4477;48.736;9.176;2023-04-10T13:10:47;20.80;26.70
8882;DHT22;4477;48.736;9.176;2023-04-10T13:13:13;21.20;26.50
8882;DHT22;4477;48.736;9.176;2023-04-10T13:15:40;21.90;26.20
8882;DHT22;4477;48.736;9.176;2023-04-10T13:18:08;22.10;25.90
8882;DHT22;4477;48.736;9.176;2023-04-10T13:20:36;21.80;26.40
8882;DHT22;4477;48.736;9.176;2023-04-10T13:23:04;22.00;26.70
8882;DHT22;4477;48.736;9.176;2023-04-10T13:25:32;21.90;26.70
8882;DHT22;4477;48.736;9.176;2023-04-10T13:28:00;21.60;27.10
8882;DHT22;4477;48.736;9.176;2023-04-10T13:30:27;21.60;26.20
8882;DHT22;4477;48.736;9.176;2023-04-10T13:32:54;21.80;26.30
8882;DHT22;4477;48.736;9.176;2023-04-10T13:35:21;22.10;26.40
8882;DHT22;4477;48.736;9.176;2023-04-10T13:37:48;22.60;26.10
8882;DHT22;4477;48.736;9.176;2023-04-10T13:40:19;22.70;25.90
8882;DHT22;4477;48.736;9.176;2023-04-10T13:42:46;22.30;26.40
8882;DHT22;4477;48.736;9.176;2023-04-10T13:45:14;22.20;26.40
8882;DHT22;4477;48.736;9.176;2023-04-10T13:47:41;21.60;26.40
8882;DHT22;4477;48.736;9.176;2023-04-10T13:50:10;21.40;26.80
8882;DHT22;4477;48.736;9.176;2023-04-10T13:52:37;21.00;27.90
8882;DHT22;4477;48.736;9.176;2023-04-10T14:04:56;21.40;27.20
8882;DHT22;4477;48.736;9.176;2023-04-10T14:27:02;21.40;28.60
8882;DHT22;4477;48.736;9.176;2023-04-10T14:29:29;20.60;28.60
8882;DHT22;4477;48.736;9.176;2023-04-10T14:44:15;20.70;29.00
8882;DHT22;4477;48.736;9.176;2023-04-10T14:46:42;20.50;28.80
8882;DHT22;4477;48.736;9.176;2023-04-10T14:49:12;20.70;28.40
8882;DHT22;4477;48.736;9.176;2023-04-10T14:51:41;20.70;29.40
8882;DHT22;4477;48.736;9.176;2023-04-10T14:54:08;20.50;29.80
8882;DHT22;4477;48.736;9.176;2023-04-10T14:56:35;20.50;29.20
8882;DHT22;4477;48.736;9.176;2023-04-10T14:59:02;20.80;29.00
8882;DHT22;4477;48.736;9.176;2023-04-10T15:01:29;21.20;28.90
8882;DHT22;4477;48.736;9.176;2023-04-10T15:03:56;21.30;28.30
8882;DHT22;4477;48.736;9.176;2023-04-10T15:06:24;21.60;28.30
8882;DHT22;4477;48.736;9.176;2023-04-10T15:08:53;22.20;28.50
8882;DHT22;4477;48.736;9.176;2023-04-10T15:11:20;22.20;28.10
8882;DHT22;4477;48.736;9.176;2023-04-10T15:13:46;22.30;28.10
8882;DHT22;4477;48.736;9.176;2023-04-10T15:16:13;21.90;28.20
8882;DHT22;4477;48.736;9.176;2023-04-10T15:18:40;21.40;28.40
8882;DHT22;4477;48.736;9.176;2023-04-10T15:21:07;20.80;29.60
